sensor_id;sensor_type;location;lat;lon;timestamp;temperature;humidity
15991;DHT22;8100;50.994;4.538;2022-09-30T00:00:10;5.90;99.90
15991;DHT22;8100;50.994;4.538;2022-09-30T00:02:59;5.80;99.90
15991;DHT22;8100;50.994;4.538;2022-09-30T00:05:46;6.00;99.90
15991;DHT22;8100;50.994;4.538;2022-09-30T00:08:34;5.80;99.90
15991;DHT22;8100;50.994;4.538;2022-09-30T00:11:24;5.90;99.90
15991;DHT22;8100;50.994;4.538;2022-09-30T00:14:16;5.90;99.90
15991;DHT22;8100;50.994;4.538;2022-09-30T00:17:03;5.70;99.90
15991;DHT22;8100;50.994;4.538;2022-09-30T00:19:51;5.70;99.90
15991;DHT22;8100;50.994;4.538;2022-09-30T00:22:39;5.80;99.90
15991;DHT22;8100;50.994;4.538;2022-09-30T00:25:26;5.60;99.90
15991;DHT22;8100;50.994;4.538;2022-09-30T00:28:13;5.70;99.90
15991;DHT22;8100;50.994;4.538;2022-09-30T00:31:02;5.70;99.90
15991;DHT22;8100;50.994;4.538;2022-09-30T00:33:50;5.50;99.90
15991;DHT22;8100;50.994;4.538;2022-09-30T00:36:51;5.50;99.90
15991;DHT22;8100;50.994;4.538;2022-09-30T00:39:39;5.50;99.90
15991;DHT22;8100;50.994;4.538;2022-09-30T00:42:26;5.50;99.90
15991;DHT22;8100;50.994;4.538;2022-09-30T00:45:14;5.50;99.90
15991;DHT22;8100;50.994;4.538;2022-09-30T00:48:06;5.50;99.90
15991;DHT22;8100;50.994;4.538;2022-09-30T00:50:54;5.30;99.90
15991;DHT22;8100;50.994;4.538;2022-09-30T00:53:47;5.40;99.90
15991;DHT22;8100;50.994;4.538;2022-09-30T00:56:39;5.40;99.90
15991;DHT22;8100;50.994;4.538;2022-09-30T00:59:29;5.20;99.90
15991;DHT22;8100;50.994;4.538;2022-09-30T01:02:19;5.20;99.90
15991;DHT22;8100;50.994;4.538;2022-09-30T01:05:07;5.40;99.90
15991;DHT22;8100;50.994;4.538;2022-09-30T01:07:57;5.40;99.90
15991;DHT22;8100;50.994;4.538;2022-09-30T01:10:46;5.40;99.90
15991;DHT22;8100;50.994;4.538;2022-09-30T01:13:34;5.40;99.90
15991;DHT22;8100;50.994;4.538;2022-09-30T01:16:49;5.20;99.90
15991;DHT22;8100;50.994;4.538;2022-09-30T01:19:58;5.10;99.90
15991;DHT22;8100;50.994;4.538;2022-09-30T01:23:08;5.30;99.90
15991;DHT22;8100;50.994;4.538;2022-09-30T01:26:13;5.30;99.90
15991;DHT22;8100;50.994;4.538;2022-09-30T01:29:27;5.00;99.90
15991;DHT22;8100;50.994;4.538;2022-09-30T01:32:40;5.20;99.90
15991;DHT22;8100;50.994;4.538;2022-09-30T01:35:38;5.20;99.90
15991;DHT22;8100;50.994;4.538;2022-09-30T01:38:32;4.90;99.90
15991;DHT22;8100;50.994;4.538;2022-09-30T01:41:26;5.20;99.90
15991;DHT22;8100;50.994;4.538;2022-09-30T01:44:25;5.00;99.90
15991;DHT22;8100;50.994;4.538;2022-09-30T01:47:18;4.90;99.90
15991;DHT22;8100;50.994;4.538;2022-09-30T01:50:11;5.00;99.90
15991;DHT22;8100;50.994;4.538;2022-09-30T01:53:06;5.10;99.90
15991;DHT22;8100;50.994;4.538;2022-09-30T01:55:59;5.10;99.90
15991;DHT22;8100;50.994;4.538;2022-09-30T01:58:51;5.00;99.90
15991;DHT22;8100;50.994;4.538;2022-09-30T02:01:44;5.00;99.90
15991;DHT22;8100;50.994;4.538;2022-09-30T02:04:35;5.00;99.90
15991;DHT22;8100;50.994;4.538;2022-09-30T02:07:29;4.90;99.90
15991;DHT22;8100;50.994;4.538;2022-09-30T02:10:22;5.00;99.90
15991;DHT22;8100;50.994;4.538;2022-09-30T02:13:14;4.80;99.90
15991;DHT22;8100;50.994;4.538;2022-09-30T02:16:05;4.70;99.90
15991;DHT22;8100;50.994;4.538;2022-09-30T02:19:00;5.00;99.90
15991;DHT22;8100;50.994;4.538;2022-09-30T02:21:54;4.70;99.90
15991;DHT22;8100;50.994;4.538;2022-09-30T02:24:44;5.00;99.90
15991;DHT22;8100;50.994;4.538;2022-09-30T02:27:34;4.60;99.90
15991;DHT22;8100;50.994;4.538;2022-09-30T02:30:27;4.70;99.90
15991;DHT22;8100;50.994;4.538;2022-09-30T02:33:19;4.60;99.90
15991;DHT22;8100;50.994;4.538;2022-09-30T02:36:11;4.60;99.90
15991;DHT22;8100;50.994;4.538;2022-09-30T02:39:05;4.50;99.90
15991;DHT22;8100;50.994;4.538;2022-09-30T02:41:59;4.60;99.90
15991;DHT22;8100;50.994;4.538;2022-09-30T02:44:50;4.60;99.90
15991;DHT22;8100;50.994;4.538;2022-09-30T02:47:48;4.60;99.90
15991;DHT22;8100;50.994;4.538;2022-09-30T02:50:43;4.60;99.90
15991;DHT22;8100;50.994;4.538;2022-09-30T02:53:38;4.50;99.90
15991;DHT22;8100;50.994;4.538;2022-09-30T02:56:32;4.50;99.90
15991;DHT22;8100;50.994;4.538;2022-09-30T02:59:26;4.70;99.90
15991;DHT22;8100;50.994;4.538;2022-09-30T03:02:14;4.40;99.90
15991;DHT22;8100;50.994;4.538;2022-09-30T03:05:01;4.50;99.90
15991;DHT22;8100;50.994;4.538;2022-09-30T03:07:49;4.30;99.90
15991;DHT22;8100;50.994;4.538;2022-09-30T03:10:37;4.40;99.90
15991;DHT22;8100;50.994;4.538;2022-09-30T03:13:53;4.60;99.90
15991;DHT22;8100;50.994;4.538;2022-09-30T03:20:13;4.60;99.90
15991;DHT22;8100;50.994;4.538;2022-09-30T03:23:18;4.30;99.90
15991;DHT22;8100;50.994;4.538;2022-09-30T03:26:19;4.40;99.90
15991;DHT22;8100;50.994;4.538;2022-09-30T03:29:15;4.30;99.90
15991;DHT22;8100;50.994;4.538;2022-09-30T03:32:12;4.50;99.90
15991;DHT22;8100;50.994;4.538;2022-09-30T03:35:08;4.50;99.90
15991;DHT22;8100;50.994;4.538;2022-09-30T03:38:01;4.20;99.90
15991;DHT22;8100;50.994;4.538;2022-09-30T03:40:56;4.40;99.90
15991;DHT22;8100;50.994;4.538;2022-09-30T03:43:49;4.50;99.90
15991;DHT22;8100;50.994;4.538;2022-09-30T03:46:39;4.20;99.90
15991;DHT22;8100;50.994;4.538;2022-09-30T03:49:33;4.40;99.90
15991;DHT22;8100;50.994;4.538;2022-09-30T03:52:22;4.50;99.90
15991;DHT22;8100;50.994;4.538;2022-09-30T03:55:11;4.20;99.90
15991;DHT22;8100;50.994;4.538;2022-09-30T03:57:58;4.50;99.90
15991;DHT22;8100;50.994;4.538;2022-09-30T04:00:48;4.40;99.90
15991;DHT22;8100;50.994;4.538;2022-09-30T04:03:36;4.40;99.90
15991;DHT22;8100;50.994;4.538;2022-09-30T04:06:24;4.40;99.90
15991;DHT22;8100;50.994;4.538;2022-09-30T04:09:12;4.40;99.90
15991;DHT22;8100;50.994;4.538;2022-09-30T04:11:59;4.30;99.90
15991;DHT22;8100;50.994;4.538;2022-09-30T04:14:46;4.40;99.90
15991;DHT22;8100;50.994;4.538;2022-09-30T04:17:33;4.20;99.90
15991;DHT22;8100;50.994;4.538;2022-09-30T04:20:20;4.20;99.90
15991;DHT22;8100;50.994;4.538;2022-09-30T04:23:09;4.30;99.90
15991;DHT22;8100;50.994;4.538;2022-09-30T04:25:56;4.10;99.90
15991;DHT22;8100;50.994;4.538;2022-09-30T04:28:43;4.10;99.90
15991;DHT22;8100;50.994;4.538;2022-09-30T04:31:30;4.30;99.90
15991;DHT22;8100;50.994;4.538;2022-09-30T04:34:17;4.00;99.90
15991;DHT22;8100;50.994;4.538;2022-09-30T04:37:05;4.10;99.90
15991;DHT22;8100;50.994;4.538;2022-09-30T04:39:53;4.00;99.90
15991;DHT22;8100;50.994;4.538;2022-09-30T04:42:41;4.20;99.90
15991;DHT22;8100;50.994;4.538;2022-09-30T04:45:28;4.10;99.90
15991;DHT22;8100;50.994;4.538;2022-09-30T04:48:16;4.10;99.90
15991;DHT22;8100;50.994;4.538;2022-09-30T04:51:03;4.10;99.90
15991;DHT22;8100;50.994;4.538;2022-09-30T04:53:50;3.80;99.90
15991;DHT22;8100;50.994;4.538;2022-09-30T04:56:39;4.10;99.90
15991;DHT22;8100;50.994;4.538;2022-09-30T04:59:26;3.80;99.90
15991;DHT22;8100;50.994;4.538;2022-09-30T05:02:13;4.10;99.90
15991;DHT22;8100;50.994;4.538;2022-09-30T05:05:02;3.80;99.90
15991;DHT22;8100;50.994;4.538;2022-09-30T05:07:49;4.10;99.90
15991;DHT22;8100;50.994;4.538;2022-09-30T05:10:36;4.00;99.90
15991;DHT22;8100;50.994;4.538;2022-09-30T05:13:30;3.90;99.90
15991;DHT22;8100;50.994;4.538;2022-09-30T05:16:18;4.10;99.90
15991;DHT22;8100;50.994;4.538;2022-09-30T05:19:06;3.80;99.90
15991;DHT22;8100;50.994;4.538;2022-09-30T05:21:53;4.00;99.90
15991;DHT22;8100;50.994;4.538;2022-09-30T05:24:40;4.00;99.90
15991;DHT22;8100;50.994;4.538;2022-09-30T05:27:28;3.70;99.90
15991;DHT22;8100;50.994;4.538;2022-09-30T05:30:17;3.60;99.90
15991;DHT22;8100;50.994;4.538;2022-09-30T05:33:04;4.00;99.90
15991;DHT22;8100;50.994;4.538;2022-09-30T05:35:52;4.00;99.90
15991;DHT22;8100;50.994;4.538;2022-09-30T05:38:39;3.70;99.90
15991;DHT22;8100;50.994;4.538;2022-09-30T05:41:26;3.90;99.90
15991;DHT22;8100;50.994;4.538;2022-09-30T05:44:13;3.90;99.90
15991;DHT22;8100;50.994;4.538;2022-09-30T05:47:02;3.80;99.90
15991;DHT22;8100;50.994;4.538;2022-09-30T05:49:50;4.00;99.90
15991;DHT22;8100;50.994;4.538;2022-09-30T05:52:37;4.00;99.90
15991;DHT22;8100;50.994;4.538;2022-09-30T05:55:24;3.80;99.90
15991;DHT22;8100;50.994;4.538;2022-09-30T05:58:11;3.90;99.90
15991;DHT22;8100;50.994;4.538;2022-09-30T06:01:03;3.70;99.90
15991;DHT22;8100;50.994;4.538;2022-09-30T06:03:52;3.80;99.90
15991;DHT22;8100;50.994;4.538;2022-09-30T06:06:40;4.10;99.90
15991;DHT22;8100;50.994;4.538;2022-09-30T06:09:27;3.70;99.90
15991;DHT22;8100;50.994;4.538;2022-09-30T06:12:14;3.80;99.90
15991;DHT22;8100;50.994;4.538;2022-09-30T06:15:02;4.10;99.90
15991;DHT22;8100;50.994;4.538;2022-09-30T06:17:51;4.30;99.90
15991;DHT22;8100;50.994;4.538;2022-09-30T06:20:40;4.10;99.90
15991;DHT22;8100;50.994;4.538;2022-09-30T06:23:27;4.40;99.90
15991;DHT22;8100;50.994;4.538;2022-09-30T06:26:14;4.30;99.90
15991;DHT22;8100;50.994;4.538;2022-09-30T06:29:01;4.40;99.90
15991;DHT22;8100;50.994;4.538;2022-09-30T06:31:48;4.60;99.90
15991;DHT22;8100;50.994;4.538;2022-09-30T06:34:35;4.80;99.90
15991;DHT22;8100;50.994;4.538;2022-09-30T06:37:24;5.00;99.90
15991;DHT22;8100;50.994;4.538;2022-09-30T06:40:12;5.00;99.90
15991;DHT22;8100;50.994;4.538;2022-09-30T06:43:00;5.00;99.90
15991;DHT22;8100;50.994;4.538;2022-09-30T06:45:48;5.40;99.90
15991;DHT22;8100;50.994;4.538;2022-09-30T06:48:36;5.40;99.90
15991;DHT22;8100;50.994;4.538;2022-09-30T06:51:23;5.60;99.90
15991;DHT22;8100;50.994;4.538;2022-09-30T06:54:12;5.60;99.90
15991;DHT22;8100;50.994;4.538;2022-09-30T06:56:59;5.80;99.90
15991;DHT22;8100;50.994;4.538;2022-09-30T06:59:47;6.20;99.90
15991;DHT22;8100;50.994;4.538;2022-09-30T07:02:34;6.20;99.90
15991;DHT22;8100;50.994;4.538;2022-09-30T07:05:22;6.30;99.90
15991;DHT22;8100;50.994;4.538;2022-09-30T07:08:10;6.50;99.90
15991;DHT22;8100;50.994;4.538;2022-09-30T07:10:59;6.90;99.90
15991;DHT22;8100;50.994;4.538;2022-09-30T07:13:47;6.90;99.90
15991;DHT22;8100;50.994;4.538;2022-09-30T07:16:34;7.20;99.90
15991;DHT22;8100;50.994;4.538;2022-09-30T07:19:21;7.30;99.90
15991;DHT22;8100;50.994;4.538;2022-09-30T07:22:08;7.70;99.90
15991;DHT22;8100;50.994;4.538;2022-09-30T07:25:14;7.90;99.90
15991;DHT22;8100;50.994;4.538;2022-09-30T07:28:03;8.10;99.90
15991;DHT22;8100;50.994;4.538;2022-09-30T07:30:50;8.30;99.90
15991;DHT22;8100;50.994;4.538;2022-09-30T07:33:40;8.50;99.90
15991;DHT22;8100;50.994;4.538;2022-09-30T07:36:28;8.50;99.90
15991;DHT22;8100;50.994;4.538;2022-09-30T07:39:16;8.90;99.90
15991;DHT22;8100;50.994;4.538;2022-09-30T07:42:03;8.90;99.90
15991;DHT22;8100;50.994;4.538;2022-09-30T07:44:52;8.80;99.90
15991;DHT22;8100;50.994;4.538;2022-09-30T07:47:40;8.90;99.90
15991;DHT22;8100;50.994;4.538;2022-09-30T07:50:27;9.20;99.90
15991;DHT22;8100;50.994;4.538;2022-09-30T07:53:14;9.60;99.90
15991;DHT22;8100;50.994;4.538;2022-09-30T07:56:02;9.60;99.90
15991;DHT22;8100;50.994;4.538;2022-09-30T07:58:52;9.70;99.90
15991;DHT22;8100;50.994;4.538;2022-09-30T08:01:41;9.80;99.90
15991;DHT22;8100;50.994;4.538;2022-09-30T08:04:29;10.10;99.90
15991;DHT22;8100;50.994;4.538;2022-09-30T08:07:17;10.30;99.90
15991;DHT22;8100;50.994;4.538;2022-09-30T08:10:05;10.30;99.90
15991;DHT22;8100;50.994;4.538;2022-09-30T08:12:52;10.30;99.90
15991;DHT22;8100;50.994;4.538;2022-09-30T08:15:39;10.50;99.90
15991;DHT22;8100;50.994;4.538;2022-09-30T08:18:28;10.40;99.90
15991;DHT22;8100;50.994;4.538;2022-09-30T08:21:15;10.70;99.90
15991;DHT22;8100;50.994;4.538;2022-09-30T08:24:02;10.80;99.90
15991;DHT22;8100;50.994;4.538;2022-09-30T08:26:51;11.10;99.90
15991;DHT22;8100;50.994;4.538;2022-09-30T08:29:38;11.10;99.90
15991;DHT22;8100;50.994;4.538;2022-09-30T08:32:28;11.30;99.90
15991;DHT22;8100;50.994;4.538;2022-09-30T08:35:17;11.60;99.90
15991;DHT22;8100;50.994;4.538;2022-09-30T08:38:04;11.60;99.90
15991;DHT22;8100;50.994;4.538;2022-09-30T08:40:59;11.50;99.90
15991;DHT22;8100;50.994;4.538;2022-09-30T08:43:56;11.40;99.90
15991;DHT22;8100;50.994;4.538;2022-09-30T08:46:52;11.50;99.90
15991;DHT22;8100;50.994;4.538;2022-09-30T08:49:50;11.60;99.90
15991;DHT22;8100;50.994;4.538;2022-09-30T08:52:44;11.70;99.90
15991;DHT22;8100;50.994;4.538;2022-09-30T08:55:40;11.80;99.90
15991;DHT22;8100;50.994;4.538;2022-09-30T08:58:30;12.00;99.90
15991;DHT22;8100;50.994;4.538;2022-09-30T09:01:21;12.10;99.90
15991;DHT22;8100;50.994;4.538;2022-09-30T09:04:09;12.20;99.90
15991;DHT22;8100;50.994;4.538;2022-09-30T09:07:01;12.20;99.90
15991;DHT22;8100;50.994;4.538;2022-09-30T09:10:02;12.30;99.90
15991;DHT22;8100;50.994;4.538;2022-09-30T09:12:57;12.40;99.90
15991;DHT22;8100;50.994;4.538;2022-09-30T09:15:58;12.50;99.90
15991;DHT22;8100;50.994;4.538;2022-09-30T09:19:04;12.70;99.90
15991;DHT22;8100;50.994;4.538;2022-09-30T09:21:54;12.80;99.90
15991;DHT22;8100;50.994;4.538;2022-09-30T09:24:43;12.90;99.90
15991;DHT22;8100;50.994;4.538;2022-09-30T09:27:44;13.00;99.90
15991;DHT22;8100;50.994;4.538;2022-09-30T09:30:36;13.10;99.90
15991;DHT22;8100;50.994;4.538;2022-09-30T09:33:30;13.20;99.90
15991;DHT22;8100;50.994;4.538;2022-09-30T09:36:30;13.30;99.90
15991;DHT22;8100;50.994;4.538;2022-09-30T09:39:30;13.50;99.90
15991;DHT22;8100;50.994;4.538;2022-09-30T09:42:41;13.70;99.90
15991;DHT22;8100;50.994;4.538;2022-09-30T09:45:37;13.80;99.90
15991;DHT22;8100;50.994;4.538;2022-09-30T09:48:26;13.90;99.90
15991;DHT22;8100;50.994;4.538;2022-09-30T09:51:20;14.00;99.90
15991;DHT22;8100;50.994;4.538;2022-09-30T09:54:10;14.10;99.90
15991;DHT22;8100;50.994;4.538;2022-09-30T09:57:04;14.20;99.90
15991;DHT22;8100;50.994;4.538;2022-09-30T09:59:56;14.40;99.90
15991;DHT22;8100;50.994;4.538;2022-09-30T10:02:44;14.50;99.90
15991;DHT22;8100;50.994;4.538;2022-09-30T10:05:32;14.60;99.90
15991;DHT22;8100;50.994;4.538;2022-09-30T10:08:24;14.80;99.90
15991;DHT22;8100;50.994;4.538;2022-09-30T10:11:19;15.00;99.90
15991;DHT22;8100;50.994;4.538;2022-09-30T10:14:15;15.10;99.90
15991;DHT22;8100;50.994;4.538;2022-09-30T10:17:17;15.30;99.90
15991;DHT22;8100;50.994;4.538;2022-09-30T10:20:15;15.90;99.90
15991;DHT22;8100;50.994;4.538;2022-09-30T10:23:09;16.30;99.90
15991;DHT22;8100;50.994;4.538;2022-09-30T10:26:09;16.80;99.90
15991;DHT22;8100;50.994;4.538;2022-09-30T10:29:02;16.60;99.90
15991;DHT22;8100;50.994;4.538;2022-09-30T10:31:50;15.80;99.90
15991;DHT22;8100;50.994;4.538;2022-09-30T10:34:41;15.50;99.90
15991;DHT22;8100;50.994;4.538;2022-09-30T10:37:30;15.40;99.90
15991;DHT22;8100;50.994;4.538;2022-09-30T10:40:17;15.60;99.90
15991;DHT22;8100;50.994;4.538;2022-09-30T10:43:18;15.60;99.90
15991;DHT22;8100;50.994;4.538;2022-09-30T10:46:07;15.80;99.90
15991;DHT22;8100;50.994;4.538;2022-09-30T10:48:56;15.80;99.90
15991;DHT22;8100;50.994;4.538;2022-09-30T10:51:45;15.90;99.90
15991;DHT22;8100;50.994;4.538;2022-09-30T10:54:42;16.00;99.90
15991;DHT22;8100;50.994;4.538;2022-09-30T10:57:32;16.00;99.90
15991;DHT22;8100;50.994;4.538;2022-09-30T11:00:21;15.80;99.90
15991;DHT22;8100;50.994;4.538;2022-09-30T11:03:13;15.60;99.90
15991;DHT22;8100;50.994;4.538;2022-09-30T11:06:01;15.60;99.90
15991;DHT22;8100;50.994;4.538;2022-09-30T11:08:54;15.60;99.90
15991;DHT22;8100;50.994;4.538;2022-09-30T11:11:46;15.50;99.90
15991;DHT22;8100;50.994;4.538;2022-09-30T11:14:41;15.50;99.90
15991;DHT22;8100;50.994;4.538;2022-09-30T11:17:35;15.50;99.90
15991;DHT22;8100;50.994;4.538;2022-09-30T11:20:27;15.80;99.90
15991;DHT22;8100;50.994;4.538;2022-09-30T11:23:19;15.90;99.90
15991;DHT22;8100;50.994;4.538;2022-09-30T11:26:16;16.10;99.90
15991;DHT22;8100;50.994;4.538;2022-09-30T11:29:21;16.20;99.90
15991;DHT22;8100;50.994;4.538;2022-09-30T11:32:18;16.30;99.90
15991;DHT22;8100;50.994;4.538;2022-09-30T11:41:43;16.30;99.90
15991;DHT22;8100;50.994;4.538;2022-09-30T11:44:34;16.30;99.90
15991;DHT22;8100;50.994;4.538;2022-09-30T11:47:37;16.30;99.90
15991;DHT22;8100;50.994;4.538;2022-09-30T11:50:40;16.40;99.90
15991;DHT22;8100;50.994;4.538;2022-09-30T11:53:41;16.30;99.90
15991;DHT22;8100;50.994;4.538;2022-09-30T11:56:40;16.60;99.90
15991;DHT22;8100;50.994;4.538;2022-09-30T11:59:33;16.80;99.90
15991;DHT22;8100;50.994;4.538;2022-09-30T12:02:29;16.90;99.90
15991;DHT22;8100;50.994;4.538;2022-09-30T12:05:21;16.60;99.90
15991;DHT22;8100;50.994;4.538;2022-09-30T12:08:14;16.70;99.90
15991;DHT22;8100;50.994;4.538;2022-09-30T12:11:05;16.80;99.90
15991;DHT22;8100;50.994;4.538;2022-09-30T12:13:57;16.50;99.90
15991;DHT22;8100;50.994;4.538;2022-09-30T12:16:46;16.50;99.90
15991;DHT22;8100;50.994;4.538;2022-09-30T12:19:40;16.50;99.90
15991;DHT22;8100;50.994;4.538;2022-09-30T12:22:31;16.60;99.90
15991;DHT22;8100;50.994;4.538;2022-09-30T12:25:22;16.80;99.90
15991;DHT22;8100;50.994;4.538;2022-09-30T12:28:19;17.10;99.90
15991;DHT22;8100;50.994;4.538;2022-09-30T12:32:01;16.90;99.90
15991;DHT22;8100;50.994;4.538;2022-09-30T12:35:02;17.20;99.90
15991;DHT22;8100;50.994;4.538;2022-09-30T12:38:12;17.40;99.90
15991;DHT22;8100;50.994;4.538;2022-09-30T12:41:15;17.70;99.90
15991;DHT22;8100;50.994;4.538;2022-09-30T12:47:32;17.00;99.90
15991;DHT22;8100;50.994;4.538;2022-09-30T12:50:23;16.60;99.90
15991;DHT22;8100;50.994;4.538;2022-09-30T12:53:17;16.60;99.90
15991;DHT22;8100;50.994;4.538;2022-09-30T12:56:06;17.00;99.90
15991;DHT22;8100;50.994;4.538;2022-09-30T12:58:54;17.30;99.90
15991;DHT22;8100;50.994;4.538;2022-09-30T13:01:42;17.60;99.90
15991;DHT22;8100;50.994;4.538;2022-09-30T13:04:33;17.80;99.90
15991;DHT22;8100;50.994;4.538;2022-09-30T13:07:21;17.70;99.90
15991;DHT22;8100;50.994;4.538;2022-09-30T13:10:28;17.80;99.90
15991;DHT22;8100;50.994;4.538;2022-09-30T13:13:20;17.50;99.90
15991;DHT22;8100;50.994;4.538;2022-09-30T13:16:09;17.20;99.90
15991;DHT22;8100;50.994;4.538;2022-09-30T13:19:00;17.10;99.90
15991;DHT22;8100;50.994;4.538;2022-09-30T13:21:49;17.20;99.90
15991;DHT22;8100;50.994;4.538;2022-09-30T13:25:03;17.10;99.90
15991;DHT22;8100;50.994;4.538;2022-09-30T13:27:53;17.10;99.90
15991;DHT22;8100;50.994;4.538;2022-09-30T13:31:11;17.00;99.90
15991;DHT22;8100;50.994;4.538;2022-09-30T13:34:09;17.00;99.90
15991;DHT22;8100;50.994;4.538;2022-09-30T13:36:59;17.00;99.90
15991;DHT22;8100;50.994;4.538;2022-09-30T13:39:50;17.10;99.90
15991;DHT22;8100;50.994;4.538;2022-09-30T13:42:42;17.10;99.90
15991;DHT22;8100;50.994;4.538;2022-09-30T13:45:34;17.10;99.90
15991;DHT22;8100;50.994;4.538;2022-09-30T13:48:28;17.10;99.90
15991;DHT22;8100;50.994;4.538;2022-09-30T13:51:18;16.90;99.90
15991;DHT22;8100;50.994;4.538;2022-09-30T13:54:11;16.90;99.90
15991;DHT22;8100;50.994;4.538;2022-09-30T13:57:01;16.90;99.90
15991;DHT22;8100;50.994;4.538;2022-09-30T13:59:59;16.70;99.90
15991;DHT22;8100;50.994;4.538;2022-09-30T14:03:05;16.60;99.90
15991;DHT22;8100;50.994;4.538;2022-09-30T14:06:03;16.70;99.90
15991;DHT22;8100;50.994;4.538;2022-09-30T14:09:17;16.80;99.90
15991;DHT22;8100;50.994;4.538;2022-09-30T14:12:25;17.10;99.90
15991;DHT22;8100;50.994;4.538;2022-09-30T14:15:41;17.30;99.90
15991;DHT22;8100;50.994;4.538;2022-09-30T14:19:05;17.30;99.90
15991;DHT22;8100;50.994;4.538;2022-09-30T14:21:55;17.20;99.90
15991;DHT22;8100;50.994;4.538;2022-09-30T14:24:45;17.00;99.90
15991;DHT22;8100;50.994;4.538;2022-09-30T14:27:58;16.80;99.90
15991;DHT22;8100;50.994;4.538;2022-09-30T14:30:48;16.70;99.90
15991;DHT22;8100;50.994;4.538;2022-09-30T14:33:49;16.70;99.90
15991;DHT22;8100;50.994;4.538;2022-09-30T14:36:37;17.10;99.90
15991;DHT22;8100;50.994;4.538;2022-09-30T14:39:28;17.40;99.90
15991;DHT22;8100;50.994;4.538;2022-09-30T14:42:24;17.80;99.90
15991;DHT22;8100;50.994;4.538;2022-09-30T14:45:19;18.20;99.90
15991;DHT22;8100;50.994;4.538;2022-09-30T14:48:09;19.90;99.90
15991;DHT22;8100;50.994;4.538;2022-09-30T14:50:59;19.20;99.90
15991;DHT22;8100;50.994;4.538;2022-09-30T14:53:53;19.60;99.90
15991;DHT22;8100;50.994;4.538;2022-09-30T14:56:40;18.30;99.90
15991;DHT22;8100;50.994;4.538;2022-09-30T14:59:30;19.30;99.90
15991;DHT22;8100;50.994;4.538;2022-09-30T15:02:18;19.80;99.90
15991;DHT22;8100;50.994;4.538;2022-09-30T15:05:08;19.80;99.90
15991;DHT22;8100;50.994;4.538;2022-09-30T15:07:58;21.10;99.90
15991;DHT22;8100;50.994;4.538;2022-09-30T15:10:46;19.90;99.90
15991;DHT22;8100;50.994;4.538;2022-09-30T15:13:36;18.40;99.90
15991;DHT22;8100;50.994;4.538;2022-09-30T15:16:29;17.90;99.90
15991;DHT22;8100;50.994;4.538;2022-09-30T15:19:20;17.60;99.90
15991;DHT22;8100;50.994;4.538;2022-09-30T15:22:10;18.70;99.90
15991;DHT22;8100;50.994;4.538;2022-09-30T15:24:58;19.00;99.90
15991;DHT22;8100;50.994;4.538;2022-09-30T15:27:45;19.60;99.90
15991;DHT22;8100;50.994;4.538;2022-09-30T15:30:34;19.80;99.90
15991;DHT22;8100;50.994;4.538;2022-09-30T15:33:24;20.30;99.90
15991;DHT22;8100;50.994;4.538;2022-09-30T15:36:14;18.70;99.90
15991;DHT22;8100;50.994;4.538;2022-09-30T15:39:02;17.80;99.90
15991;DHT22;8100;50.994;4.538;2022-09-30T15:41:50;17.00;99.90
15991;DHT22;8100;50.994;4.538;2022-09-30T15:44:38;16.90;99.90
15991;DHT22;8100;50.994;4.538;2022-09-30T15:47:26;16.80;99.90
15991;DHT22;8100;50.994;4.538;2022-09-30T15:50:40;17.40;99.90
15991;DHT22;8100;50.994;4.538;2022-09-30T15:53:30;18.50;99.90
15991;DHT22;8100;50.994;4.538;2022-09-30T15:56:23;18.60;99.90
15991;DHT22;8100;50.994;4.538;2022-09-30T15:59:12;18.80;99.90
15991;DHT22;8100;50.994;4.538;2022-09-30T16:01:59;18.30;99.90
15991;DHT22;8100;50.994;4.538;2022-09-30T16:04:49;17.60;99.90
15991;DHT22;8100;50.994;4.538;2022-09-30T16:07:41;17.00;99.90
15991;DHT22;8100;50.994;4.538;2022-09-30T16:10:28;17.00;99.90
15991;DHT22;8100;50.994;4.538;2022-09-30T16:13:15;16.90;99.90
15991;DHT22;8100;50.994;4.538;2022-09-30T16:16:03;16.70;99.90
15991;DHT22;8100;50.994;4.538;2022-09-30T16:18:52;16.50;99.90
15991;DHT22;8100;50.994;4.538;2022-09-30T16:21:41;16.30;99.90
15991;DHT22;8100;50.994;4.538;2022-09-30T16:24:47;16.00;99.90
15991;DHT22;8100;50.994;4.538;2022-09-30T16:27:34;15.80;99.90
15991;DHT22;8100;50.994;4.538;2022-09-30T16:30:22;15.70;99.90
15991;DHT22;8100;50.994;4.538;2022-09-30T16:33:12;15.50;99.90
15991;DHT22;8100;50.994;4.538;2022-09-30T16:36:00;15.50;99.90
15991;DHT22;8100;50.994;4.538;2022-09-30T16:38:47;15.30;99.90
15991;DHT22;8100;50.994;4.538;2022-09-30T16:41:35;15.20;99.90
15991;DHT22;8100;50.994;4.538;2022-09-30T16:44:23;15.10;99.90
15991;DHT22;8100;50.994;4.538;2022-09-30T16:47:14;14.90;99.90
15991;DHT22;8100;50.994;4.538;2022-09-30T16:50:21;14.80;99.90
15991;DHT22;8100;50.994;4.538;2022-09-30T16:53:10;14.80;99.90
15991;DHT22;8100;50.994;4.538;2022-09-30T16:55:57;14.80;99.90
15991;DHT22;8100;50.994;4.538;2022-09-30T16:58:46;14.70;99.90
15991;DHT22;8100;50.994;4.538;2022-09-30T17:01:33;14.70;99.90
15991;DHT22;8100;50.994;4.538;2022-09-30T17:04:20;14.60;99.90
15991;DHT22;8100;50.994;4.538;2022-09-30T17:07:11;14.60;99.90
15991;DHT22;8100;50.994;4.538;2022-09-30T17:09:59;14.50;99.90
15991;DHT22;8100;50.994;4.538;2022-09-30T17:12:46;14.40;99.90
15991;DHT22;8100;50.994;4.538;2022-09-30T17:15:35;14.40;99.90
15991;DHT22;8100;50.994;4.538;2022-09-30T17:18:22;14.30;99.90
15991;DHT22;8100;50.994;4.538;2022-09-30T17:21:09;14.20;99.90
15991;DHT22;8100;50.994;4.538;2022-09-30T17:23:56;14.10;99.90
15991;DHT22;8100;50.994;4.538;2022-09-30T17:26:44;14.00;99.90
15991;DHT22;8100;50.994;4.538;2022-09-30T17:29:31;14.00;99.90
15991;DHT22;8100;50.994;4.538;2022-09-30T17:32:19;13.90;99.90
15991;DHT22;8100;50.994;4.538;2022-09-30T17:35:07;13.90;99.90
15991;DHT22;8100;50.994;4.538;2022-09-30T17:37:55;13.70;99.90
15991;DHT22;8100;50.994;4.538;2022-09-30T17:40:42;13.70;99.90
15991;DHT22;8100;50.994;4.538;2022-09-30T17:43:46;13.60;99.90
15991;DHT22;8100;50.994;4.538;2022-09-30T17:46:42;13.50;99.90
15991;DHT22;8100;50.994;4.538;2022-09-30T17:49:32;13.50;99.90
15991;DHT22;8100;50.994;4.538;2022-09-30T17:52:20;13.40;99.90
15991;DHT22;8100;50.994;4.538;2022-09-30T17:55:08;13.40;99.90
15991;DHT22;8100;50.994;4.538;2022-09-30T17:57:55;13.30;99.90
15991;DHT22;8100;50.994;4.538;2022-09-30T18:00:43;13.20;99.90
15991;DHT22;8100;50.994;4.538;2022-09-30T18:03:31;13.20;99.90
15991;DHT22;8100;50.994;4.538;2022-09-30T18:06:20;13.20;99.90
15991;DHT22;8100;50.994;4.538;2022-09-30T18:09:07;13.20;99.90
15991;DHT22;8100;50.994;4.538;2022-09-30T18:11:55;13.10;99.90
15991;DHT22;8100;50.994;4.538;2022-09-30T18:14:45;13.10;99.90
15991;DHT22;8100;50.994;4.538;2022-09-30T18:17:32;13.10;99.90
15991;DHT22;8100;50.994;4.538;2022-09-30T18:20:19;13.10;99.90
15991;DHT22;8100;50.994;4.538;2022-09-30T18:23:08;13.10;99.90
15991;DHT22;8100;50.994;4.538;2022-09-30T18:25:55;13.10;99.90
15991;DHT22;8100;50.994;4.538;2022-09-30T18:28:42;13.00;99.90
15991;DHT22;8100;50.994;4.538;2022-09-30T18:31:30;13.10;99.90
15991;DHT22;8100;50.994;4.538;2022-09-30T18:34:21;13.00;99.90
15991;DHT22;8100;50.994;4.538;2022-09-30T18:37:09;13.00;99.90
15991;DHT22;8100;50.994;4.538;2022-09-30T18:39:58;13.00;99.90
15991;DHT22;8100;50.994;4.538;2022-09-30T18:42:45;13.00;99.90